Time;durP1;ratioP1;P1;durP2;ratioP2;P2;SDS_P1;SDS_P2;PMS_P1;PMS_P2;Temp;Humidity;BMP_temperature;BMP_pressure;BME280_temperature;BME280_humidity;BME280_pressure;Samples;Min_cycle;Max_cycle;Signal;HPM_P1;HPM_P2
2022/10/21 00:00:11;;;;;;;11.95;7.45;;;;;;;13.70;56.50;100508.41;4965747;28;20081;-71
2022/10/21 00:02:45;;;;;;;;;;;;;;;13.44;57.38;100531.25;4979370;28;20031;-73
2022/10/21 00:05:13;;;;;;;8.90;6.22;;;;;;;13.66;56.35;100521.63;4971338;28;20013;-72
2022/10/21 00:07:41;;;;;;;9.70;6.78;;;;;;;13.69;56.28;100524.06;4985349;28;20101;-71
2022/10/21 00:10:10;;;;;;;9.77;7.05;;;;;;;13.71;56.62;100516.50;4984875;28;20117;-71
2022/10/21 00:12:38;;;;;;;9.20;6.45;;;;;;;13.70;56.79;100513.91;4965757;28;20072;-70
2022/10/21 00:15:09;;;;;;;10.27;6.88;;;;;;;13.72;56.59;100507.22;4984359;28;20065;-70
2022/10/21 00:17:38;;;;;;;8.32;6.20;;;;;;;13.72;57.04;100500.84;4996049;28;20042;-71
2022/10/21 00:20:11;;;;;;;9.25;6.32;;;;;;;13.73;56.62;100488.84;4986741;28;20042;-71
2022/10/21 00:22:38;;;;;;;;;;;;;;;13.45;57.58;100499.97;4986855;28;20511;-71
2022/10/21 00:25:08;;;;;;;7.85;5.05;;;;;;;13.68;56.75;100505.84;4988730;28;19922;-71
2022/10/21 00:27:37;;;;;;;9.82;6.05;;;;;;;13.71;57.08;100490.88;4987965;28;20039;-71
2022/10/21 00:30:07;;;;;;;8.80;6.20;;;;;;;13.73;56.55;100503.44;4989679;28;20534;-71
2022/10/21 00:32:35;;;;;;;8.70;6.20;;;;;;;13.73;56.72;100499.84;4984940;28;20113;-70
2022/10/21 00:35:04;;;;;;;8.35;6.07;;;;;;;13.74;57.01;100496.06;4981368;28;20045;-70
2022/10/21 00:37:33;;;;;;;9.75;6.68;;;;;;;13.76;56.45;100496.78;4972140;28;20141;-70
2022/10/21 00:40:01;;;;;;;8.32;5.85;;;;;;;13.75;56.92;100493.16;4979496;28;20579;-70
2022/10/21 00:42:32;;;;;;;8.25;5.72;;;;;;;13.77;56.68;100491.13;4986102;28;20045;-71
2022/10/21 00:45:11;;;;;;;9.52;5.95;;;;;;;13.78;57.07;100486.44;4970737;28;20125;-70
2022/10/21 00:47:44;;;;;;;8.13;5.55;;;;;;;13.78;56.60;100484.56;4991139;28;20057;-71
2022/10/21 00:50:22;;;;;;;7.70;5.60;;;;;;;13.80;57.49;100487.16;4992953;28;20368;-71
2022/10/21 00:52:53;;;;;;;10.35;5.20;;;;;;;13.79;57.23;100479.91;4991942;28;20680;-71
2022/10/21 00:55:21;;;;;;;7.82;5.38;;;;;;;13.79;56.72;100491.78;4980415;28;20499;-71
2022/10/21 00:57:50;;;;;;;7.18;5.20;;;;;;;13.80;57.22;100490.75;4991118;28;20081;-71
2022/10/21 01:00:19;;;;;;;9.75;6.07;;;;;;;13.79;57.17;100488.16;4988180;28;20043;-70
2022/10/21 01:02:47;;;;;;;9.18;6.05;;;;;;;13.79;56.60;100488.16;4987476;28;20085;-72
2022/10/21 01:05:16;;;;;;;7.13;5.38;;;;;;;13.82;57.17;100488.72;4984381;28;20052;-71
2022/10/21 01:07:47;;;;;;;8.15;5.90;;;;;;;13.82;57.29;100488.72;4989061;28;20398;-71
2022/10/21 01:10:17;;;;;;;7.63;6.07;;;;;;;13.83;57.08;100492.34;4986391;28;20038;-70
2022/10/21 01:12:57;;;;;;;11.90;6.13;;;;;;;13.84;57.33;100481.19;4990274;28;20043;-70
2022/10/21 01:15:30;;;;;;;8.60;5.97;;;;;;;13.83;56.58;100470.34;4989470;28;20125;-71
2022/10/21 01:18:05;;;;;;;8.40;5.70;;;;;;;13.82;56.88;100468.59;4974545;28;20046;-73
2022/10/21 01:20:53;;;;;;;9.75;5.95;;;;;;;13.82;57.40;100461.22;4986126;28;20050;-71
2022/10/21 01:23:56;;;;;;;8.75;5.72;;;;;;;13.80;57.51;100457.75;4982552;28;20044;-70
2022/10/21 01:26:57;;;;;;;8.70;5.88;;;;;;;13.79;57.12;100449.66;4987313;28;20053;-71
2022/10/21 01:30:05;;;;;;;7.95;5.45;;;;;;;13.72;56.95;100446.72;4981633;28;20141;-71
2022/10/21 01:32:46;;;;;;;7.70;5.22;;;;;;;13.77;57.17;100438.84;4891032;29;20057;-71
2022/10/21 01:35:21;;;;;;;7.00;5.63;;;;;;;13.77;56.69;100443.50;4987964;28;20061;-71
2022/10/21 01:38:03;;;;;;;8.25;5.72;;;;;;;13.77;57.27;100438.84;4989705;28;20042;-71
2022/10/21 01:40:36;;;;;;;8.70;6.40;;;;;;;13.74;56.93;100435.56;4989934;28;20049;-71
2022/10/21 01:43:14;;;;;;;7.15;4.90;;;;;;;13.75;56.57;100429.91;4990514;28;20533;-72
2022/10/21 01:45:46;;;;;;;6.70;5.10;;;;;;;13.74;56.57;100436.44;4988262;28;20039;-72
2022/10/21 01:48:19;;;;;;;7.30;5.27;;;;;;;13.73;57.17;100429.19;4990448;28;20101;-71
2022/10/21 01:50:51;;;;;;;7.88;5.32;;;;;;;13.72;56.98;100426.59;4983393;28;20062;-72
2022/10/21 01:53:21;;;;;;;8.95;5.50;;;;;;;13.71;56.57;100427.63;4989609;28;20045;-72
2022/10/21 01:55:51;;;;;;;7.57;5.20;;;;;;;13.70;56.33;100423.16;4989410;28;20070;-71
2022/10/21 01:58:23;;;;;;;7.45;4.75;;;;;;;13.71;56.80;100420.25;4990749;28;20034;-72
2022/10/21 02:00:56;;;;;;;9.15;5.47;;;;;;;13.70;56.70;100417.66;4967667;28;20092;-71
2022/10/21 02:03:29;;;;;;;8.30;5.25;;;;;;;13.68;57.17;100412.34;4988357;28;20042;-71
2022/10/21 02:05:57;;;;;;;7.95;5.07;;;;;;;13.68;56.97;100414.22;4987865;28;20039;-72
2022/10/21 02:08:26;;;;;;;7.85;5.18;;;;;;;13.68;56.25;100411.47;4989420;28;20050;-72
2022/10/21 02:10:57;;;;;;;8.32;5.45;;;;;;;13.68;56.80;100412.34;4988263;28;20050;-72
2022/10/21 02:13:30;;;;;;;7.07;5.03;;;;;;;13.69;56.91;100404.97;4989313;28;20054;-71
2022/10/21 02:16:00;;;;;;;;;;;;;;;13.40;57.58;100394.28;4981313;28;20046;-72
2022/10/21 02:18:29;;;;;;;7.38;4.63;;;;;;;13.62;56.57;100388.22;4983118;28;19925;-71
2022/10/21 02:21:01;;;;;;;8.90;4.88;;;;;;;13.66;56.87;100384.13;4977545;28;20042;-71
2022/10/21 02:23:35;;;;;;;7.65;4.45;;;;;;;13.63;56.90;100387.22;4995565;28;20037;-71
2022/10/21 02:26:03;;;;;;;7.28;5.18;;;;;;;13.63;56.67;100388.06;4987778;28;20047;-70
2022/10/21 02:28:32;;;;;;;7.70;4.57;;;;;;;13.62;56.64;100378.09;4990815;28;20043;-71
2022/10/21 02:31:12;;;;;;;6.10;4.70;;;;;;;13.65;56.71;100384.31;4982044;28;20066;-71
2022/10/21 02:33:52;;;;;;;6.45;3.83;;;;;;;13.65;56.60;100378.81;4988188;28;20121;-71
2022/10/21 02:36:27;;;;;;;5.68;4.10;;;;;;;13.62;56.89;100380.84;4989865;28;20116;-71
2022/10/21 02:39:00;;;;;;;6.75;4.43;;;;;;;13.63;56.82;100382.56;4980886;28;20050;-71
2022/10/21 02:41:30;;;;;;;5.95;4.18;;;;;;;13.62;56.71;100388.22;4985092;28;20404;-71
2022/10/21 02:44:00;;;;;;;6.15;4.03;;;;;;;13.61;56.52;100387.38;4996055;28;20498;-71
2022/10/21 02:46:36;;;;;;;5.78;3.78;;;;;;;13.62;56.98;100382.72;4986498;28;20051;-71
2022/10/21 02:49:06;;;;;;;5.50;3.60;;;;;;;13.61;56.70;100392.88;4989622;28;20154;-70
2022/10/21 02:51:34;;;;;;;5.65;4.00;;;;;;;13.59;56.61;100381.19;4978042;28;20038;-71
2022/10/21 02:54:02;;;;;;;6.35;4.00;;;;;;;13.59;56.75;100377.59;4980860;28;20491;-71
2022/10/21 02:56:30;;;;;;;6.28;3.88;;;;;;;13.59;56.50;100378.44;4980469;28;20060;-71
2022/10/21 02:58:57;;;;;;;5.32;3.42;;;;;;;13.59;56.73;100388.59;4981080;28;20526;-72
2022/10/21 03:01:25;;;;;;;7.50;3.97;;;;;;;13.58;56.29;100384.97;4977236;28;20113;-72
2022/10/21 03:03:53;;;;;;;5.65;3.70;;;;;;;13.58;56.49;100384.09;4988703;28;20114;-72
2022/10/21 03:06:22;;;;;;;6.70;3.63;;;;;;;13.60;56.33;100390.31;4980883;28;20039;-71
2022/10/21 03:08:50;;;;;;;7.95;3.90;;;;;;;13.58;56.69;100375.84;4988467;28;20138;-71
2022/10/21 03:11:18;;;;;;;5.30;3.42;;;;;;;13.57;56.46;100372.25;4987343;28;20042;-71
2022/10/21 03:13:46;;;;;;;5.60;2.95;;;;;;;13.56;56.09;100367.78;4988314;28;20042;-71
2022/10/21 03:16:13;;;;;;;5.43;3.40;;;;;;;13.57;56.48;100371.38;4968011;28;20119;-71
2022/10/21 03:18:41;;;;;;;6.30;3.78;;;;;;;13.57;56.39;100376.88;4990199;28;20069;-71
2022/10/21 03:21:09;;;;;;;6.40;3.33;;;;;;;13.57;56.61;100382.38;4990041;28;20038;-71
2022/10/21 03:23:38;;;;;;;5.22;3.20;;;;;;;13.57;56.10;100388.75;4989059;28;20038;-72
2022/10/21 03:26:06;;;;;;;5.20;3.38;;;;;;;13.56;56.61;100377.88;4989357;28;20075;-71
2022/10/21 03:28:34;;;;;;;6.00;3.13;;;;;;;13.56;56.50;100388.88;4983427;28;20067;-72
2022/10/21 03:31:02;;;;;;;5.65;3.33;;;;;;;13.55;56.63;100390.75;4989089;28;20116;-70
2022/10/21 03:33:29;;;;;;;5.47;3.30;;;;;;;13.55;56.60;100389.91;4994567;28;20048;-71
2022/10/21 03:35:57;;;;;;;4.82;3.00;;;;;;;13.55;56.53;100388.00;4996719;28;20084;-71
2022/10/21 03:38:25;;;;;;;5.30;3.35;;;;;;;13.54;56.18;100378.03;4987353;28;20495;-71
2022/10/21 03:40:54;;;;;;;5.63;3.25;;;;;;;13.55;56.38;100381.66;4979304;28;20046;-72
2022/10/21 03:43:22;;;;;;;4.38;3.05;;;;;;;13.55;56.33;100387.16;4988100;28;20054;-71
2022/10/21 03:45:50;;;;;;;4.85;3.10;;;;;;;13.53;56.58;100376.31;4991930;28;20557;-71
2022/10/21 03:48:18;;;;;;;5.80;2.88;;;;;;;13.53;56.57;100380.97;4983667;28;20046;-71
2022/10/21 03:50:45;;;;;;;5.10;3.58;;;;;;;13.53;56.18;100375.47;4985362;28;20407;-72
2022/10/21 03:53:13;;;;;;;5.43;3.22;;;;;;;13.53;55.99;100373.56;4966608;28;20054;-72
2022/10/21 03:56:02;;;;;;;5.38;3.30;;;;;;;13.53;56.53;100369.97;4969902;28;20042;-71
2022/10/21 03:58:30;;;;;;;4.70;3.28;;;;;;;13.51;56.20;100367.38;4989258;28;20042;-71
2022/10/21 04:00:58;;;;;;;4.47;3.28;;;;;;;13.51;56.57;100364.63;4987157;28;20049;-72
2022/10/21 04:03:26;;;;;;;5.65;3.30;;;;;;;13.51;56.66;100366.53;4987223;28;20058;-72
2022/10/21 04:05:54;;;;;;;6.32;3.05;;;;;;;13.51;56.64;100367.38;4988627;28;20061;-72
2022/10/21 04:08:22;;;;;;;4.40;2.90;;;;;;;13.50;56.17;100362.91;4989508;28;20050;-71
2022/10/21 04:10:49;;;;;;;5.80;2.97;;;;;;;13.51;56.76;100374.78;4992161;28;20065;-71
2022/10/21 04:13:19;;;;;;;4.75;3.30;;;;;;;13.53;56.49;100380.97;4986844;28;20092;-71
2022/10/21 04:15:47;;;;;;;4.90;3.00;;;;;;;13.51;56.38;100367.38;4989853;28;20105;-71
2022/10/21 04:18:15;;;;;;;5.43;3.00;;;;;;;13.52;56.25;100368.25;4992931;28;20042;-72
2022/10/21 04:20:43;;;;;;;6.20;3.10;;;;;;;13.51;56.76;100370.13;4962581;28;20507;-71
2022/10/21 04:23:10;;;;;;;5.47;3.05;;;;;;;13.52;56.65;100373.75;4990846;28;20515;-71
2022/10/21 04:25:38;;;;;;;4.07;2.80;;;;;;;13.53;56.35;100380.97;4986989;28;20038;-72
2022/10/21 04:28:06;;;;;;;5.00;2.78;;;;;;;13.53;56.79;100372.72;4988486;28;20098;-71
2022/10/21 04:30:35;;;;;;;5.00;2.80;;;;;;;13.55;56.36;100366.00;4986913;28;20045;-71
2022/10/21 04:33:04;;;;;;;3.95;2.65;;;;;;;13.54;56.52;100372.53;4986199;28;20093;-71
2022/10/21 04:35:31;;;;;;;6.03;3.00;;;;;;;13.54;56.12;100375.28;4988733;28;20046;-72
2022/10/21 04:37:59;;;;;;;5.50;2.75;;;;;;;13.54;56.85;100375.28;4989084;28;20101;-71
2022/10/21 04:40:27;;;;;;;3.90;2.65;;;;;;;13.54;56.38;100367.03;4988373;28;20520;-71
2022/10/21 04:42:55;;;;;;;4.68;2.70;;;;;;;13.54;56.79;100371.66;4991281;28;20061;-72
2022/10/21 04:45:23;;;;;;;4.50;2.63;;;;;;;13.54;56.85;100374.41;4984624;28;20047;-72
2022/10/21 04:47:52;;;;;;;5.93;3.10;;;;;;;13.57;56.34;100375.00;4987796;28;20050;-71
2022/10/21 04:50:23;;;;;;;5.13;2.40;;;;;;;13.58;56.92;100367.63;4989277;28;20042;-71
2022/10/21 04:52:51;;;;;;;4.30;2.78;;;;;;;13.55;56.44;100360.50;4990881;28;20100;-72
2022/10/21 04:55:19;;;;;;;5.63;2.45;;;;;;;13.57;56.40;100366.75;4987140;28;20053;-71
2022/10/21 04:57:47;;;;;;;5.68;2.55;;;;;;;13.57;56.81;100361.25;4989341;28;20042;-71
2022/10/21 05:00:15;;;;;;;4.13;2.40;;;;;;;13.59;56.83;100364.69;5021975;23;20041;-81
2022/10/21 05:02:43;;;;;;;4.40;2.70;;;;;;;13.58;56.40;100354.72;4996945;28;20083;-82
2022/10/21 05:05:12;;;;;;;5.10;2.70;;;;;;;13.61;56.36;100356.28;5012532;28;20039;-81
2022/10/21 05:07:40;;;;;;;4.75;2.88;;;;;;;13.60;56.98;100351.81;5007761;28;20137;-84
2022/10/21 05:10:08;;;;;;;4.22;2.80;;;;;;;13.60;56.92;100344.44;5013210;28;20492;-85
2022/10/21 05:12:36;;;;;;;4.32;2.90;;;;;;;13.59;56.88;100339.97;5011034;28;20736;-84
2022/10/21 05:15:05;;;;;;;3.70;2.42;;;;;;;13.61;56.70;100346.13;5011627;28;20049;-85
2022/10/21 05:17:35;;;;;;;4.38;2.45;;;;;;;13.60;56.91;100341.69;4993811;28;20105;-84
2022/10/21 05:20:10;;;;;;;4.57;2.53;;;;;;;13.61;56.71;100337.03;4973799;28;20046;-84
2022/10/21 05:22:40;;;;;;;4.60;2.78;;;;;;;13.63;56.84;100341.31;5001131;28;20233;-85
2022/10/21 05:25:09;;;;;;;3.65;2.40;;;;;;;13.62;56.90;100331.34;4998285;28;20121;-84
2022/10/21 05:27:37;;;;;;;4.32;2.80;;;;;;;13.63;56.96;100335.81;4983245;28;20054;-83
2022/10/21 05:30:10;;;;;;;4.10;2.55;;;;;;;13.65;56.81;100332.91;5016981;28;20042;-81
2022/10/21 05:32:38;;;;;;;3.83;2.40;;;;;;;13.65;56.49;100330.16;5001832;28;20068;-83
2022/10/21 05:35:07;;;;;;;4.95;2.40;;;;;;;13.65;57.07;100323.81;5017301;28;20042;-83
2022/10/21 05:37:35;;;;;;;4.80;2.47;;;;;;;13.66;56.48;100307.16;4994038;28;20050;-83
2022/10/21 05:40:06;;;;;;;4.30;2.47;;;;;;;13.68;56.65;100310.59;5009889;28;20169;-83
2022/10/21 05:42:34;;;;;;;4.15;2.40;;;;;;;13.67;56.99;100317.13;5000008;28;20080;-83
2022/10/21 05:45:03;;;;;;;3.17;2.22;;;;;;;13.68;56.39;100306.97;5000862;28;20041;-83
2022/10/21 05:47:31;;;;;;;3.50;2.30;;;;;;;13.67;56.72;100306.13;4999453;28;20058;-83
2022/10/21 05:49:59;;;;;;;6.13;2.50;;;;;;;13.68;56.74;100295.97;5002701;28;20053;-84
2022/10/21 05:52:27;;;;;;;4.45;2.42;;;;;;;13.68;56.68;100291.34;5000530;28;20119;-83
2022/10/21 05:54:55;;;;;;;3.25;2.00;;;;;;;13.69;56.50;100287.56;5000141;28;20056;-84
2022/10/21 05:57:24;;;;;;;4.20;2.45;;;;;;;13.70;56.40;100294.75;4988754;28;20250;-84
2022/10/21 05:59:52;;;;;;;3.53;2.10;;;;;;;13.69;56.51;100290.31;4995618;28;20053;-84
2022/10/21 06:02:20;;;;;;;3.70;2.30;;;;;;;13.70;56.73;100307.66;4998898;28;20034;-83
2022/10/21 06:04:48;;;;;;;4.95;2.17;;;;;;;13.69;56.86;100304.06;5008663;28;20034;-84
2022/10/21 06:07:16;;;;;;;3.72;2.30;;;;;;;13.69;56.44;100294.97;5000991;28;20124;-84
2022/10/21 06:09:44;;;;;;;4.70;1.90;;;;;;;13.69;56.48;100297.72;5011483;28;20042;-86
2022/10/21 06:12:12;;;;;;;3.88;2.30;;;;;;;13.69;56.92;100295.81;4990685;28;20034;-86
2022/10/21 06:14:42;;;;;;;5.35;2.30;;;;;;;13.72;57.06;100294.59;4992601;28;20091;-86
2022/10/21 06:17:10;;;;;;;3.92;2.38;;;;;;;13.70;56.76;100294.75;5004531;28;20519;-86
2022/10/21 06:19:38;;;;;;;5.22;2.30;;;;;;;13.71;56.56;100298.38;4991461;28;20050;-86
2022/10/21 06:22:12;;;;;;;4.93;2.35;;;;;;;13.69;56.53;100290.31;5006653;28;20041;-85
2022/10/21 06:24:40;;;;;;;4.40;2.60;;;;;;;13.70;56.88;100283.75;5002634;28;20069;-85
2022/10/21 06:27:08;;;;;;;4.43;2.45;;;;;;;13.71;56.69;100288.25;5016047;28;20046;-85
2022/10/21 06:29:36;;;;;;;3.80;2.08;;;;;;;13.71;57.06;100293.75;5012316;28;20038;-85
2022/10/21 06:32:06;;;;;;;3.97;2.20;;;;;;;13.72;57.06;100297.34;4995250;28;20034;-85
2022/10/21 06:34:34;;;;;;;3.80;2.15;;;;;;;13.72;56.84;100303.72;4985469;28;20061;-85
2022/10/21 06:37:01;;;;;;;4.82;2.30;;;;;;;13.72;56.55;100297.34;5005824;28;20034;-85
2022/10/21 06:39:29;;;;;;;4.93;2.10;;;;;;;13.72;56.78;100306.47;5012381;28;20472;-84
2022/10/21 06:41:58;;;;;;;4.25;2.40;;;;;;;13.75;56.88;100313.53;5013623;28;20042;-85
2022/10/21 06:44:52;;;;;;;4.32;2.60;;;;;;;13.73;56.89;100304.56;5007551;28;20045;-85
2022/10/21 06:47:27;;;;;;;3.08;1.90;;;;;;;13.75;56.53;100319.03;4995356;28;20401;-84
2022/10/21 06:49:55;;;;;;;4.07;2.10;;;;;;;13.74;56.96;100317.31;4999843;28;20063;-84
2022/10/21 06:52:23;;;;;;;3.70;2.15;;;;;;;13.76;56.48;100304.25;5004688;28;20046;-82
2022/10/21 06:54:51;;;;;;;3.60;2.38;;;;;;;13.75;57.03;100302.53;4936023;28;20570;-84
2022/10/21 06:57:19;;;;;;;4.72;2.65;;;;;;;13.76;56.74;100302.38;5010775;28;21187;-83
2022/10/21 06:59:47;;;;;;;3.90;2.05;;;;;;;13.78;56.77;100304.91;4998902;28;20050;-83
2022/10/21 07:02:15;;;;;;;3.25;2.03;;;;;;;13.77;56.84;100305.97;4999065;28;20052;-83
2022/10/21 07:04:47;;;;;;;4.82;2.60;;;;;;;13.80;56.85;100323.00;5012562;28;20041;-82
2022/10/21 07:07:15;;;;;;;5.32;2.00;;;;;;;13.78;56.99;100327.78;5001274;28;20069;-83
2022/10/21 07:09:43;;;;;;;4.40;2.20;;;;;;;13.80;56.80;100325.75;4998458;28;20049;-84
2022/10/21 07:12:12;;;;;;;3.25;2.13;;;;;;;13.83;56.71;100330.91;4993349;28;20533;-83
2022/10/21 07:14:40;;;;;;;4.03;2.05;;;;;;;13.83;57.09;100339.16;4994014;28;20069;-84
2022/10/21 07:17:09;;;;;;;4.43;2.35;;;;;;;13.85;57.09;100347.25;4995477;28;20413;-84
2022/10/21 07:19:36;;;;;;;4.95;2.10;;;;;;;13.86;57.05;100362.72;5012968;28;20038;-83
2022/10/21 07:22:06;;;;;;;4.25;2.78;;;;;;;13.88;56.65;100358.75;4994634;28;20100;-83
2022/10/21 07:24:34;;;;;;;4.93;2.65;;;;;;;13.87;57.16;100369.94;5007293;28;20464;-84
2022/10/21 07:27:02;;;;;;;5.55;2.00;;;;;;;13.89;56.82;100388.00;5005333;28;20480;-83
2022/10/21 07:29:30;;;;;;;3.95;2.10;;;;;;;13.90;56.88;100389.72;5001813;28;20508;-84
2022/10/21 07:31:58;;;;;;;5.00;2.40;;;;;;;13.91;56.62;100396.09;4991457;28;20050;-83
2022/10/21 07:34:27;;;;;;;3.78;2.15;;;;;;;13.93;56.96;100391.28;5009866;28;20078;-84
2022/10/21 07:36:55;;;;;;;4.70;2.45;;;;;;;13.93;57.12;100396.78;5012407;28;20049;-84
2022/10/21 07:39:26;;;;;;;6.32;2.80;;;;;;;13.95;56.90;100392.81;5008555;28;20523;-84
2022/10/21 07:41:57;;;;;;;5.93;2.40;;;;;;;13.97;56.74;100400.91;4998594;28;20092;-83
2022/10/21 07:44:26;;;;;;;5.93;2.22;;;;;;;13.97;56.74;100403.66;5013436;28;20100;-85
2022/10/21 07:46:54;;;;;;;4.35;2.15;;;;;;;13.99;57.21;100407.13;5008539;28;20054;-84
2022/10/21 07:49:23;;;;;;;4.82;2.50;;;;;;;13.99;57.41;100402.47;4994264;28;20054;-83
2022/10/21 07:51:52;;;;;;;3.83;2.22;;;;;;;14.00;57.17;100409.72;4999101;28;20277;-82
2022/10/21 07:54:21;;;;;;;4.63;2.40;;;;;;;14.02;57.58;100409.53;5011987;28;20523;-82
2022/10/21 07:56:53;;;;;;;4.30;2.45;;;;;;;14.02;57.26;100404.88;4999107;28;20532;-84
2022/10/21 07:59:22;;;;;;;5.00;2.30;;;;;;;14.03;57.27;100405.75;5007859;28;20045;-84
2022/10/21 08:01:51;;;;;;;3.58;2.22;;;;;;;14.01;57.40;100388.56;5014252;28;20706;-85
2022/10/21 08:04:23;;;;;;;5.45;2.40;;;;;;;14.02;57.09;100402.13;5015181;28;20050;-85
2022/10/21 08:06:51;;;;;;;5.47;2.47;;;;;;;13.98;57.30;100405.38;4999242;28;20084;-83
2022/10/21 08:09:21;;;;;;;4.97;2.38;;;;;;;13.96;57.18;100402.81;5012869;28;20034;-84
2022/10/21 08:11:56;;;;;;;3.72;2.38;;;;;;;13.94;57.73;100402.09;4998734;28;20046;-85
2022/10/21 08:14:29;;;;;;;4.53;2.40;;;;;;;13.90;57.62;100405.38;4995490;28;20089;-85
2022/10/21 08:17:22;;;;;;;3.88;2.40;;;;;;;13.88;58.45;100402.78;5009687;28;20045;-83
2022/10/21 08:19:59;;;;;;;5.60;2.80;;;;;;;13.85;57.80;100407.78;4918853;29;20047;-84
2022/10/21 08:22:53;;;;;;;5.22;2.58;;;;;;;13.81;58.65;100403.63;4914107;29;20067;-83
2022/10/21 08:25:22;;;;;;;5.60;2.72;;;;;;;13.80;58.14;100411.00;4937748;29;20512;-83
2022/10/21 08:27:52;;;;;;;5.63;3.08;;;;;;;13.82;58.46;100413.59;4943742;29;20051;-83
2022/10/21 08:30:20;;;;;;;5.03;3.25;;;;;;;13.79;57.98;100409.28;4951429;28;20078;-83
2022/10/21 08:32:48;;;;;;;7.53;3.10;;;;;;;13.79;58.03;100411.16;4931727;29;20141;-84
2022/10/21 08:35:16;;;;;;;5.68;3.38;;;;;;;13.79;58.76;100411.16;4919566;29;20493;-83
2022/10/21 08:37:47;;;;;;;5.18;3.00;;;;;;;13.78;58.50;100402.03;4951092;28;20052;-84
2022/10/21 08:40:16;;;;;;;6.28;2.60;;;;;;;13.78;58.53;100404.78;5012903;28;20104;-84
2022/10/21 08:42:45;;;;;;;5.53;2.75;;;;;;;13.78;58.38;100404.78;5012808;28;20042;-83
2022/10/21 08:45:23;;;;;;;5.63;3.00;;;;;;;13.81;58.91;100417.38;5000594;28;20048;-84
2022/10/21 08:47:55;;;;;;;5.50;3.00;;;;;;;13.80;59.10;100411.00;4996725;28;20150;-83
2022/10/21 08:50:33;;;;;;;4.65;2.53;;;;;;;13.82;58.76;100414.44;5024809;28;20095;-82
2022/10/21 08:53:13;;;;;;;4.95;2.70;;;;;;;13.82;58.74;100419.97;5013882;28;20053;-84
2022/10/21 08:55:43;;;;;;;6.90;2.85;;;;;;;13.82;58.96;100414.44;5016981;28;20045;-84
2022/10/21 08:58:14;;;;;;;5.60;3.00;;;;;;;13.83;59.15;100416.19;5000002;28;20558;-85
2022/10/21 09:00:48;;;;;;;4.13;2.53;;;;;;;13.83;59.17;100413.44;5007738;28;20500;-85
2022/10/21 09:03:23;;;;;;;4.72;2.90;;;;;;;13.85;59.04;100416.88;5014512;28;20305;-83
2022/10/21 09:06:15;;;;;;;4.15;2.70;;;;;;;13.84;60.04;100406.03;5004090;28;20042;-84
2022/10/21 09:08:54;;;;;;;4.00;2.60;;;;;;;13.86;59.18;100407.56;5010581;28;20048;-85
2022/10/21 09:11:33;;;;;;;6.07;3.10;;;;;;;13.87;59.39;100400.19;4997437;28;20512;-84
2022/10/21 09:14:39;;;;;;;5.03;2.63;;;;;;;13.85;59.68;100405.88;4995692;28;20096;-84
2022/10/21 09:17:21;;;;;;;5.28;2.72;;;;;;;13.88;59.82;100404.66;5012194;28;20096;-84
2022/10/21 09:19:58;;;;;;;5.83;2.93;;;;;;;13.86;59.57;100413.06;5012293;28;20047;-85
2022/10/21 09:23:09;;;;;;;4.70;2.72;;;;;;;13.90;60.03;100408.13;4995765;28;20210;-84
2022/10/21 09:26:20;;;;;;;5.47;2.47;;;;;;;13.89;59.90;100412.75;4996190;28;20050;-84
2022/10/21 09:29:15;;;;;;;4.78;2.45;;;;;;;13.89;59.27;100411.88;4993732;28;20137;-84
2022/10/21 09:31:46;;;;;;;3.97;2.65;;;;;;;13.90;59.38;100405.38;4996721;28;20042;-84
2022/10/21 09:34:37;;;;;;;5.07;2.47;;;;;;;13.94;59.91;100409.53;4990943;28;20049;-83
2022/10/21 09:37:11;;;;;;;5.20;2.47;;;;;;;13.93;59.50;100416.03;5018423;28;20042;-83
2022/10/21 09:39:54;;;;;;;4.40;2.67;;;;;;;13.95;59.50;100435.97;5015659;28;20030;-85
2022/10/21 09:42:25;;;;;;;4.18;2.60;;;;;;;13.95;59.58;100435.97;5002348;28;20461;-84
2022/10/21 09:45:30;;;;;;;4.70;2.22;;;;;;;13.98;60.00;100431.00;4969482;28;20052;-85
2022/10/21 09:48:06;;;;;;;3.63;2.33;;;;;;;13.99;59.46;100429.13;4988544;28;20138;-84
2022/10/21 09:50:37;;;;;;;5.05;2.50;;;;;;;14.02;59.27;100434.31;5002287;28;20038;-82
2022/10/21 09:53:31;;;;;;;3.65;2.08;;;;;;;14.04;59.67;100442.38;5011463;28;20049;-83
2022/10/21 09:56:05;;;;;;;4.53;2.30;;;;;;;14.03;59.52;100444.25;4994294;28;20038;-83
2022/10/21 09:58:49;;;;;;;4.32;2.40;;;;;;;14.06;59.65;100445.81;4997528;28;20046;-83
2022/10/21 10:01:20;;;;;;;4.45;2.28;;;;;;;14.06;59.23;100443.94;5000454;28;20451;-84
2022/10/21 10:03:50;;;;;;;3.88;2.28;;;;;;;14.08;59.08;100441.03;5010696;28;20037;-83
2022/10/21 10:06:42;;;;;;;6.07;2.80;;;;;;;14.05;60.19;100450.47;5011661;28;20050;-84
2022/10/21 10:09:24;;;;;;;6.15;2.67;;;;;;;14.08;59.63;100476.78;5014407;28;20081;-84
2022/10/21 10:12:00;;;;;;;5.65;2.50;;;;;;;14.05;60.02;100485.38;5009036;28;20301;-84
2022/10/21 10:14:33;;;;;;;4.28;2.33;;;;;;;14.07;59.85;100480.56;5020124;28;20061;-84
2022/10/21 10:17:21;;;;;;;4.10;2.08;;;;;;;14.06;59.98;100470.59;5006244;28;20053;-83
2022/10/21 10:20:15;;;;;;;3.95;2.25;;;;;;;14.04;60.39;100470.75;5005766;28;20062;-84
2022/10/21 10:22:46;;;;;;;3.78;2.30;;;;;;;14.08;59.88;100490.56;4998595;28;20081;-84
2022/10/21 10:25:22;;;;;;;5.03;2.38;;;;;;;14.09;60.18;100487.66;4999230;28;20037;-82
2022/10/21 10:27:53;;;;;;;3.80;2.30;;;;;;;14.09;59.93;100479.38;5010534;28;20034;-82
2022/10/21 10:30:46;;;;;;;4.25;2.63;;;;;;;14.10;60.52;100475.63;5011817;28;20053;-84
2022/10/21 10:33:16;;;;;;;;;;;;;;;13.84;60.99;100478.41;5010134;28;20133;-83
2022/10/21 10:35:50;;;;;;;3.40;2.08;;;;;;;14.10;60.29;100483.00;4983885;28;20000;-83
2022/10/21 10:38:24;;;;;;;4.32;2.20;;;;;;;14.14;59.80;100492.63;5010817;28;20048;-84
2022/10/21 10:40:53;;;;;;;4.03;2.47;;;;;;;14.13;59.89;100496.41;5008682;28;20524;-82
2022/10/21 10:43:29;;;;;;;4.63;2.60;;;;;;;14.17;60.01;100486.81;4995960;28;20046;-83
2022/10/21 10:46:00;;;;;;;4.43;2.65;;;;;;;14.15;59.57;100489.72;4994873;28;20077;-83
2022/10/21 10:48:38;;;;;;;6.18;2.92;;;;;;;14.18;60.14;100486.66;4984963;28;20050;-85
2022/10/21 10:51:08;;;;;;;4.45;2.85;;;;;;;14.19;60.04;100496.59;5004338;28;20061;-85
2022/10/21 10:54:34;;;;;;;5.70;3.25;;;;;;;14.16;60.44;100499.72;4984874;28;20582;-84
2022/10/21 11:00:49;;;;;;;3.65;2.28;;;;;;;14.16;60.07;100485.06;4966516;23;20057;-87
2022/10/21 11:03:31;;;;;;;4.82;2.80;;;;;;;14.21;60.24;100489.03;4953928;29;20074;-86
2022/10/21 11:13:57;;;;;;;5.18;2.75;;;;;;;14.21;60.31;100486.28;4872943;29;20052;-86
2022/10/21 11:16:51;;;;;;;5.35;3.10;;;;;;;14.25;60.92;100482.19;4838253;29;20054;-88
2022/10/21 11:19:34;;;;;;;5.35;3.05;;;;;;;14.25;60.16;100479.44;4859394;29;20444;-88
2022/10/21 11:22:12;;;;;;;5.07;2.78;;;;;;;14.29;60.34;100486.31;4854209;29;20137;-87
2022/10/21 11:24:54;;;;;;;5.95;3.13;;;;;;;14.31;60.85;100487.03;4849286;29;20049;-88
2022/10/21 11:27:47;;;;;;;5.13;2.72;;;;;;;14.31;60.78;100477.91;4855182;29;20057;-87
2022/10/21 11:30:18;;;;;;;;;;;;;;;14.03;61.23;100471.78;4860608;29;20500;-87
2022/10/21 11:33:07;;;;;;;5.43;2.63;;;;;;;14.29;61.10;100468.94;4910279;29;19974;-88
2022/10/21 11:35:48;;;;;;;4.90;2.95;;;;;;;14.33;60.57;100465.69;4954418;28;20074;-85
2022/10/21 11:38:36;;;;;;;5.60;3.03;;;;;;;14.37;60.47;100468.97;4971234;28;20461;-86
2022/10/21 11:57:25;;;;;;;5.38;2.70;;;;;;;14.41;61.50;100472.25;4951597;28;20046;-86
2022/10/21 12:00:05;;;;;;;4.18;2.30;;;;;;;14.47;61.57;100464.19;4978933;28;20039;-86
2022/10/21 12:02:42;;;;;;;4.10;2.83;;;;;;;14.51;61.35;100459.22;4982670;28;20054;-86
2022/10/21 12:05:26;;;;;;;4.18;2.58;;;;;;;14.54;61.91;100461.63;4970760;28;20129;-86
2022/10/21 12:08:12;;;;;;;4.80;2.20;;;;;;;14.55;61.71;100457.84;4981309;28;20137;-87
2022/10/21 12:10:47;;;;;;;4.15;2.55;;;;;;;14.61;61.71;100459.91;4972668;28;20054;-88
2022/10/21 12:13:20;;;;;;;4.32;2.83;;;;;;;14.65;61.62;100453.91;4991271;28;20070;-87
2022/10/21 12:15:53;;;;;;;4.07;2.60;;;;;;;14.73;61.88;100447.53;4989204;28;20060;-87
2022/10/21 12:18:23;;;;;;;4.45;2.38;;;;;;;14.75;61.70;100451.00;4977250;28;20042;-88
2022/10/21 12:20:53;;;;;;;5.15;2.85;;;;;;;14.86;62.14;100447.00;4994980;28;20116;-86